Weather History for Stevensville, MD

Change the Weather History Date:

Monday, March 4, 2013

  Actual Average (KESN) Record (KESN)
Temperature  
Mean Temperature 36 °F -  
Max Temperature 42 °F 53 °F 76 °F (1974)
Min Temperature 30 °F 36 °F 12 °F (2009)
Degree Days  
Heating Degree Days 29    
Moisture  
Dew Point 19 °F    
Average Humidity 52    
Maximum Humidity 64    
Minimum Humidity 39    
Precipitation  
Precipitation 0.00 in - - ()
Sea Level Pressure  
Sea Level Pressure 29.96 in    
Wind  
Wind Speed 15 mph (NW)    
Max Wind Speed 23 mph    
Max Gust Speed 28 mph    
Visibility 10 miles    
Events      
Averages and records for this station are not official NWS values.
T = Trace of Precipitation, MM = Missing Value Source: NWS Daily Summary

Daily Weather History Graph

Daily Weather History Graph

Search for Another Location

Airport:

Trip Planner

Search our weather history database for the weather conditions in past years. The results will help you decide how hot, cold, wet, or windy it might be!

Date:

Astronomy

Mar. 04, 2013 Rise Set
Actual Time 6:33 AM EST 6:01 PM EST
Civil Twilight 6:06 AM EST 6:28 PM EST
Nautical Twilight 5:35 AM EST 6:59 PM EST
Astronomical Twilight 5:04 AM EST 7:30 PM EST
Moon 12:38 AM EST (3/4) 10:43 AM EST (3/4)
Length of Visible Light 12h 21m
Length of Day
11h 28m
Waning Gibbous, 52% of the Moon is Illuminated
Mar 4
Waning Gibbous
Mar 4
Last Quarter
Mar 11
New
Mar 19
First Quarter
Mar 27
Full

Hourly Weather History & Observations

Time (EST) Temp. Windchill Dew Point Humidity Pressure Visibility Wind Dir Wind Speed Gust Speed Precip Events Conditions
12:18 AM 32.0 °F 21.6 °F 19.4 °F 60% 29.90 in 10.0 mi WNW 15.0 mph - N/A   Scattered Clouds
12:38 AM 32.0 °F 22.5 °F 19.4 °F 60% 29.90 in 10.0 mi WNW 12.7 mph 20.7 mph N/A   Scattered Clouds
12:58 AM 32.0 °F 22.5 °F 21.2 °F 64% 29.90 in 10.0 mi WNW 12.7 mph 17.3 mph N/A   Scattered Clouds
1:18 AM 32.0 °F 22.1 °F 21.2 °F 64% 29.91 in 10.0 mi WNW 13.8 mph 20.7 mph N/A   Mostly Cloudy
1:38 AM 32.0 °F 21.6 °F 19.4 °F 60% 29.91 in 10.0 mi WNW 15.0 mph 21.9 mph N/A   Scattered Clouds
1:58 AM 32.0 °F 21.6 °F 21.2 °F 64% 29.90 in 10.0 mi NW 15.0 mph 23.0 mph N/A   Scattered Clouds
2:18 AM 32.0 °F 21.2 °F 19.4 °F 60% 29.90 in 10.0 mi NW 16.1 mph 24.2 mph N/A   Mostly Cloudy
2:38 AM 32.0 °F 21.6 °F 19.4 °F 60% 29.90 in 10.0 mi NW 15.0 mph 21.9 mph N/A   Scattered Clouds
2:58 AM 32.0 °F 21.2 °F 19.4 °F 60% 29.90 in 10.0 mi NW 16.1 mph 24.2 mph N/A   Scattered Clouds
3:18 AM 32.0 °F 22.5 °F 19.4 °F 60% 29.91 in 10.0 mi NW 12.7 mph 23.0 mph N/A   Scattered Clouds
3:38 AM 32.0 °F 22.1 °F 19.4 °F 60% 29.91 in 10.0 mi NW 13.8 mph 20.7 mph N/A   Scattered Clouds
3:58 AM 32.0 °F 22.1 °F 19.4 °F 60% 29.92 in 10.0 mi NW 13.8 mph 20.7 mph N/A   Clear
4:18 AM 32.0 °F 22.5 °F 19.4 °F 60% 29.92 in 10.0 mi NW 12.7 mph 21.9 mph N/A   Clear
4:39 AM 32.0 °F 21.6 °F 17.6 °F 55% 29.93 in 10.0 mi NW 15.0 mph 20.7 mph N/A   Clear
4:59 AM 30.2 °F 18.9 °F 17.6 °F 60% 29.93 in 10.0 mi NW 16.1 mph 23.0 mph N/A   Clear
5:19 AM 30.2 °F 19.3 °F 17.6 °F 60% 29.94 in 10.0 mi NW 15.0 mph 21.9 mph N/A   Clear
5:59 AM 30.2 °F 18.9 °F 17.6 °F 60% 29.95 in 10.0 mi NW 16.1 mph 27.6 mph N/A   Clear
6:19 AM 30.2 °F 18.5 °F 17.6 °F 60% 29.95 in 10.0 mi NW 17.3 mph 27.6 mph N/A   Clear
6:39 AM 30.2 °F 18.5 °F 17.6 °F 60% 29.96 in 10.0 mi NW 17.3 mph 26.5 mph N/A   Clear
6:59 AM 30.2 °F 18.9 °F 17.6 °F 60% 29.97 in 10.0 mi NW 16.1 mph 25.3 mph N/A   Clear
7:19 AM 32.0 °F 21.6 °F 17.6 °F 55% 29.97 in 10.0 mi WNW 15.0 mph 20.7 mph N/A   Clear
7:39 AM 32.0 °F 20.8 °F 17.6 °F 55% 29.98 in 10.0 mi WNW 17.3 mph 24.2 mph N/A   Clear
7:59 AM 32.0 °F 20.1 °F 17.6 °F 55% 29.99 in 10.0 mi WNW 19.6 mph 24.2 mph N/A   Clear
8:19 AM 32.0 °F 19.2 °F 17.6 °F 55% 29.98 in 10.0 mi NW 23.0 mph - N/A   Clear
8:39 AM 32.0 °F 21.2 °F 17.6 °F 55% 29.99 in 10.0 mi NW 16.1 mph 26.5 mph N/A   Clear
8:59 AM 32.0 °F 19.8 °F 17.6 °F 55% 29.99 in 10.0 mi WNW 20.7 mph 27.6 mph N/A   Clear
9:19 AM 33.8 °F 23.9 °F 17.6 °F 52% 29.99 in 10.0 mi NW 15.0 mph 25.3 mph N/A   Clear
9:39 AM 33.8 °F 23.2 °F 17.6 °F 52% 29.99 in 10.0 mi NW 17.3 mph 23.0 mph N/A   Clear
9:59 AM 33.8 °F 23.2 °F 17.6 °F 52% 29.99 in 10.0 mi WNW 17.3 mph 24.2 mph N/A   Clear
10:19 AM 33.8 °F 23.9 °F 17.6 °F 52% 29.99 in 10.0 mi WNW 15.0 mph 21.9 mph N/A   Clear
10:59 AM 35.6 °F 26.2 °F 17.6 °F 48% 29.99 in 10.0 mi WNW 15.0 mph 21.9 mph N/A   Clear
11:19 AM 35.6 °F 26.2 °F 17.6 °F 48% 29.98 in 10.0 mi NW 15.0 mph 23.0 mph N/A   Clear
11:39 AM 35.6 °F 25.9 °F 17.6 °F 48% 29.98 in 10.0 mi WNW 16.1 mph - N/A   Clear
11:59 AM 37.4 °F 26.4 °F 19.4 °F 48% 29.97 in 10.0 mi NW 23.0 mph 27.6 mph N/A   Clear
12:19 PM 37.4 °F 28.5 °F 17.6 °F 45% 29.97 in 10.0 mi NW 15.0 mph 25.3 mph N/A   Clear
12:59 PM 37.4 °F 28.2 °F 17.6 °F 45% 29.96 in 10.0 mi WNW 16.1 mph 26.5 mph N/A   Clear
1:20 PM 39.2 °F 30.8 °F 17.6 °F 42% 29.95 in 10.0 mi WNW 15.0 mph 21.9 mph N/A   Clear
1:40 PM 39.2 °F 31.2 °F 19.4 °F 45% 29.94 in 10.0 mi WNW 13.8 mph 21.9 mph N/A   Clear
2:00 PM 39.2 °F 29.6 °F 19.4 °F 45% 29.94 in 10.0 mi WNW 19.6 mph 25.3 mph N/A   Clear
2:20 PM 41.0 °F 32.2 °F 19.4 °F 42% 29.94 in 10.0 mi WNW 18.4 mph 24.2 mph N/A   Clear
2:40 PM 41.0 °F 32.2 °F 19.4 °F 42% 29.93 in 10.0 mi WNW 18.4 mph 25.3 mph N/A   Clear
3:00 PM 41.0 °F 33.1 °F 19.4 °F 42% 29.94 in 10.0 mi NW 15.0 mph 23.0 mph N/A   Clear
3:20 PM 41.0 °F 33.1 °F 19.4 °F 42% 29.93 in 10.0 mi NW 15.0 mph - N/A   Clear
3:40 PM 41.0 °F 33.9 °F 19.4 °F 42% 29.93 in 10.0 mi NW 12.7 mph 18.4 mph N/A   Clear
4:00 PM 42.8 °F 36.6 °F 19.4 °F 39% 29.93 in 10.0 mi NW 11.5 mph 20.7 mph N/A   Clear
4:20 PM 41.0 °F 33.1 °F 19.4 °F 42% 29.93 in 10.0 mi WNW 15.0 mph 21.9 mph N/A   Clear
4:40 PM 41.0 °F 32.8 °F 19.4 °F 42% 29.93 in 10.0 mi WNW 16.1 mph 20.7 mph N/A   Clear
5:00 PM 41.0 °F 32.2 °F 17.6 °F 39% 29.93 in 10.0 mi NW 18.4 mph 24.2 mph N/A   Clear
5:20 PM 41.0 °F 32.5 °F 19.4 °F 42% 29.94 in 10.0 mi WNW 17.3 mph 23.0 mph N/A   Clear
5:40 PM 41.0 °F 32.8 °F 17.6 °F 39% 29.95 in 10.0 mi WNW 16.1 mph 23.0 mph N/A   Clear
6:00 PM 39.2 °F 30.5 °F 19.4 °F 45% 29.96 in 10.0 mi NW 16.1 mph - N/A   Clear
6:20 PM 39.2 °F 30.2 °F 19.4 °F 45% 29.97 in 10.0 mi WNW 17.3 mph 21.9 mph N/A   Clear
6:40 PM 37.4 °F 29.3 °F 21.2 °F 52% 29.98 in 10.0 mi NW 12.7 mph 20.7 mph N/A   Clear
7:20 PM 37.4 °F 28.9 °F 19.4 °F 48% 29.99 in 10.0 mi WNW 13.8 mph - N/A   Clear
7:40 PM 37.4 °F 28.9 °F 19.4 °F 48% 30.00 in 10.0 mi NW 13.8 mph 18.4 mph N/A   Clear
8:00 PM 37.4 °F 29.8 °F 19.4 °F 48% 30.00 in 10.0 mi WNW 11.5 mph 17.3 mph N/A   Clear
8:20 PM 37.4 °F 29.8 °F 19.4 °F 48% 30.01 in 10.0 mi NW 11.5 mph 18.4 mph N/A   Clear
8:40 PM 37.4 °F 28.9 °F 17.6 °F 45% 30.02 in 10.0 mi WNW 13.8 mph - N/A   Clear
9:00 PM 35.6 °F 28.0 °F 19.4 °F 52% 30.03 in 10.0 mi WNW 10.4 mph 17.3 mph N/A   Clear
9:20 PM 35.6 °F 28.0 °F 19.4 °F 52% 30.03 in 10.0 mi WNW 10.4 mph - N/A   Clear
9:39 PM 35.6 °F 28.6 °F 19.4 °F 52% 30.03 in 10.0 mi WNW 9.2 mph - N/A   Clear
10:00 PM 35.6 °F 29.2 °F 19.4 °F 52% 30.03 in 10.0 mi WNW 8.1 mph - N/A   Clear
10:21 PM 35.6 °F 29.9 °F 19.4 °F 52% 30.03 in 10.0 mi WNW 6.9 mph - N/A   Clear
10:41 PM 35.6 °F 29.9 °F 19.4 °F 52% 30.03 in 10.0 mi WNW 6.9 mph - N/A   Clear
11:01 PM 35.6 °F 30.7 °F 19.4 °F 52% 30.02 in 10.0 mi WNW 5.8 mph - N/A   Clear
11:21 PM 33.8 °F 28.6 °F 19.4 °F 56% 30.02 in 10.0 mi WNW 5.8 mph - N/A   Clear
11:41 PM 33.8 °F 27.7 °F 19.4 °F 56% 30.02 in 10.0 mi WNW 6.9 mph - N/A   Clear